Time;durP1;ratioP1;P1;durP2;ratioP2;P2;SDS_P1;SDS_P2;PMS_P1;PMS_P2;Temp;Humidity;BMP_temperature;BMP_pressure;BME280_temperature;BME280_humidity;BME280_pressure;Samples;Min_cycle;Max_cycle;Signal;HPM_P1;HPM_P2
2021/12/30 00:02:00;;;;;;;0.40;0.38;;;12.80;99.90;;;;;;5096475;28;20032;-83
2021/12/30 00:04:25;;;;;;;1.35;0.50;;;12.80;99.90;;;;;;5094692;28;20145;-83
2021/12/30 00:06:51;;;;;;;3.38;0.73;;;12.80;99.90;;;;;;5095197;28;20024;-82
2021/12/30 00:09:19;;;;;;;1.98;0.80;;;12.80;99.90;;;;;;5094796;28;20028;-82
2021/12/30 00:11:46;;;;;;;0.80;0.60;;;12.80;99.90;;;;;;5094932;28;20032;-83
2021/12/30 00:14:12;;;;;;;1.33;0.52;;;12.80;99.90;;;;;;5094540;28;20084;-82
2021/12/30 00:16:37;;;;;;;0.55;0.40;;;12.80;99.90;;;;;;5095050;28;20027;-82
2021/12/30 00:19:04;;;;;;;2.95;0.60;;;12.90;99.90;;;;;;5094977;28;20024;-83
2021/12/30 00:21:30;;;;;;;1.40;0.70;;;12.80;99.90;;;;;;5095780;28;20539;-83
2021/12/30 00:23:56;;;;;;;1.30;0.52;;;12.90;99.90;;;;;;5116386;28;20028;-83
2021/12/30 00:26:22;;;;;;;1.98;0.60;;;12.80;99.90;;;;;;5115738;28;20452;-82
2021/12/30 00:28:48;;;;;;;1.92;0.50;;;12.80;99.90;;;;;;5098439;28;20200;-82
2021/12/30 00:31:15;;;;;;;1.75;0.52;;;12.90;99.90;;;;;;5097672;28;20125;-83
2021/12/30 00:33:41;;;;;;;1.02;0.40;;;12.90;99.90;;;;;;5098103;28;20038;-83
2021/12/30 00:36:08;;;;;;;0.98;0.50;;;12.90;99.90;;;;;;5097876;28;20028;-82
2021/12/30 00:38:39;;;;;;;0.70;0.50;;;12.90;99.90;;;;;;5115557;28;20027;-82
2021/12/30 00:41:07;;;;;;;1.30;0.40;;;12.90;99.90;;;;;;5098059;28;20114;-83
2021/12/30 00:43:32;;;;;;;1.42;0.50;;;12.90;99.90;;;;;;5097585;28;20063;-83
2021/12/30 00:45:58;;;;;;;0.98;0.47;;;12.90;99.90;;;;;;5115773;28;20062;-83
2021/12/30 00:48:25;;;;;;;1.20;0.40;;;13.00;99.90;;;;;;5097262;28;20059;-83
2021/12/30 00:50:51;;;;;;;1.98;0.50;;;13.00;99.90;;;;;;5097633;28;20043;-83
2021/12/30 00:53:17;;;;;;;2.08;0.40;;;13.00;99.90;;;;;;5097202;28;20040;-83
2021/12/30 00:55:44;;;;;;;0.88;0.50;;;13.00;99.90;;;;;;5097680;28;20040;-83
2021/12/30 00:58:11;;;;;;;1.50;0.52;;;13.00;99.90;;;;;;5097673;28;20032;-83
2021/12/30 01:00:39;;;;;;;1.90;0.40;;;13.10;99.90;;;;;;5096813;28;20392;-83
2021/12/30 01:03:06;;;;;;;1.70;0.40;;;13.10;99.90;;;;;;5097409;28;20030;-83
2021/12/30 01:05:32;;;;;;;0.55;0.40;;;13.10;99.90;;;;;;5096596;28;20035;-83
2021/12/30 01:07:58;;;;;;;0.47;0.40;;;13.10;99.90;;;;;;5097284;28;20023;-83
2021/12/30 01:10:25;;;;;;;1.70;0.40;;;13.10;99.90;;;;;;5096892;28;20028;-82
2021/12/30 01:12:53;;;;;;;2.83;0.50;;;13.10;99.90;;;;;;5097073;28;20034;-83
2021/12/30 01:15:21;;;;;;;1.42;0.40;;;13.10;99.90;;;;;;5096802;28;20030;-82
2021/12/30 01:17:56;;;;;;;0.70;0.20;;;13.10;99.90;;;;;;5096995;28;20023;-83
2021/12/30 01:20:22;;;;;;;1.02;0.35;;;13.10;99.90;;;;;;5096811;28;20027;-82
2021/12/30 01:22:50;;;;;;;0.82;0.40;;;13.10;99.90;;;;;;5097092;28;20100;-82
2021/12/30 01:25:16;;;;;;;1.20;0.43;;;13.00;99.90;;;;;;5096928;28;20027;-82
2021/12/30 01:27:43;;;;;;;0.70;0.40;;;13.10;99.90;;;;;;5115015;28;20102;-83
2021/12/30 01:30:17;;;;;;;2.88;0.52;;;13.10;99.90;;;;;;5097014;28;20028;-82
2021/12/30 01:32:43;;;;;;;1.33;0.40;;;13.10;99.90;;;;;;5096915;28;20039;-82
2021/12/30 01:35:12;;;;;;;0.90;0.35;;;13.10;99.90;;;;;;5097096;28;20032;-83
2021/12/30 01:37:38;;;;;;;1.65;0.43;;;13.10;99.90;;;;;;5096346;28;20410;-83
2021/12/30 01:40:12;;;;;;;3.75;0.45;;;13.20;99.90;;;;;;5096994;28;20473;-83
2021/12/30 01:42:38;;;;;;;1.95;0.30;;;13.10;99.90;;;;;;5096302;28;20024;-82
2021/12/30 01:45:06;;;;;;;0.30;0.20;;;13.20;99.90;;;;;;5097024;28;20085;-83
2021/12/30 01:47:31;;;;;;;1.83;0.40;;;13.20;99.90;;;;;;5096298;28;20073;-83
2021/12/30 01:49:57;;;;;;;1.92;0.60;;;13.20;99.90;;;;;;5114393;28;20023;-82
2021/12/30 01:52:23;;;;;;;1.48;0.52;;;13.20;99.90;;;;;;5096327;28;20024;-82
2021/12/30 01:54:49;;;;;;;1.58;0.50;;;13.20;99.90;;;;;;5096494;28;20030;-83
2021/12/30 01:57:15;;;;;;;0.55;0.30;;;13.20;99.90;;;;;;5096718;28;20434;-83
2021/12/30 01:59:41;;;;;;;2.25;0.40;;;13.20;99.90;;;;;;5095985;28;20031;-83
2021/12/30 02:02:06;;;;;;;1.05;0.40;;;13.30;99.90;;;;;;5096312;28;20027;-83
2021/12/30 02:04:33;;;;;;;1.73;0.40;;;13.20;99.90;;;;;;5096244;28;20395;-83
2021/12/30 02:06:59;;;;;;;2.65;0.60;;;13.20;99.90;;;;;;5096642;28;20027;-82
2021/12/30 02:09:25;;;;;;;3.85;0.50;;;13.30;99.90;;;;;;5114022;28;20486;-82
2021/12/30 02:11:54;;;;;;;0.80;0.30;;;13.20;99.90;;;;;;5096172;28;20115;-82
2021/12/30 02:14:19;;;;;;;1.15;0.40;;;13.20;99.90;;;;;;5113939;28;20023;-82
2021/12/30 02:16:45;;;;;;;0.85;0.50;;;13.20;99.90;;;;;;5114236;28;20023;-83
2021/12/30 02:19:11;;;;;;;2.40;0.35;;;13.20;99.90;;;;;;5096639;28;20380;-82
2021/12/30 02:21:36;;;;;;;1.30;0.30;;;13.30;99.90;;;;;;5113726;28;20085;-82
2021/12/30 02:24:03;;;;;;;3.15;0.60;;;13.20;99.90;;;;;;5096263;28;20573;-83
2021/12/30 02:26:29;;;;;;;2.13;0.55;;;13.20;99.90;;;;;;5096148;28;20024;-82
2021/12/30 02:28:55;;;;;;;1.38;0.38;;;13.20;99.90;;;;;;5116380;28;20049;-82
2021/12/30 02:31:24;;;;;;;1.48;0.43;;;13.20;99.90;;;;;;5118084;28;20092;-82
2021/12/30 02:33:50;;;;;;;1.45;0.40;;;13.20;99.90;;;;;;5118510;28;20035;-82
2021/12/30 02:36:18;;;;;;;2.45;0.40;;;13.20;99.90;;;;;;5100308;28;20054;-83
2021/12/30 02:38:46;;;;;;;0.55;0.40;;;13.20;99.90;;;;;;5118457;28;20056;-82
2021/12/30 02:41:17;;;;;;;2.80;0.40;;;13.20;99.90;;;;;;5118151;28;20468;-83
2021/12/30 02:43:43;;;;;;;1.83;0.50;;;13.20;99.90;;;;;;5099871;28;20122;-82
2021/12/30 02:46:10;;;;;;;0.95;0.30;;;13.20;99.90;;;;;;5118397;28;20032;-82
2021/12/30 02:48:41;;;;;;;1.55;0.63;;;13.20;99.90;;;;;;5099769;28;20049;-82
2021/12/30 02:51:08;;;;;;;1.75;0.40;;;13.20;99.90;;;;;;5100283;28;20027;-82
2021/12/30 02:53:35;;;;;;;1.55;0.45;;;13.20;99.90;;;;;;5117444;28;20153;-82
2021/12/30 02:56:02;;;;;;;1.80;0.40;;;13.20;99.90;;;;;;5100060;28;20085;-82
2021/12/30 02:58:28;;;;;;;1.52;0.40;;;13.20;99.90;;;;;;5117448;28;20110;-82
2021/12/30 03:01:22;;;;;;;0.77;0.40;;;13.10;99.90;;;;;;5099871;28;20097;-82
2021/12/30 03:03:48;;;;;;;1.50;0.50;;;13.20;99.90;;;;;;5096536;28;20043;-83
2021/12/30 03:06:15;;;;;;;1.10;0.50;;;13.20;99.90;;;;;;5099800;28;20026;-82
2021/12/30 03:08:43;;;;;;;3.90;0.63;;;13.10;99.90;;;;;;5099495;28;20199;-82
2021/12/30 03:11:09;;;;;;;2.00;0.50;;;13.10;99.90;;;;;;5117772;28;20024;-82
2021/12/30 03:13:36;;;;;;;1.05;0.60;;;13.10;99.90;;;;;;5099171;28;20050;-82
2021/12/30 03:16:06;;;;;;;1.58;0.50;;;13.20;99.90;;;;;;5099566;28;20464;-82
2021/12/30 03:18:34;;;;;;;0.73;0.30;;;13.20;99.90;;;;;;5117269;28;20027;-82
2021/12/30 03:21:00;;;;;;;1.20;0.32;;;13.20;99.90;;;;;;5117802;28;20073;-82
2021/12/30 03:23:26;;;;;;;0.93;0.35;;;13.20;99.90;;;;;;5097807;28;20480;-82
2021/12/30 03:25:52;;;;;;;1.58;0.40;;;13.20;99.90;;;;;;5098355;28;20028;-82
2021/12/30 03:28:19;;;;;;;0.68;0.22;;;13.30;99.90;;;;;;5116240;28;20027;-82
2021/12/30 03:30:44;;;;;;;2.33;0.40;;;13.30;99.90;;;;;;5097723;28;20117;-82
2021/12/30 03:33:10;;;;;;;1.10;0.38;;;13.30;99.90;;;;;;5097939;28;20473;-82
2021/12/30 03:35:36;;;;;;;2.03;0.32;;;13.30;99.90;;;;;;5097725;28;20460;-82
2021/12/30 03:38:03;;;;;;;0.32;0.30;;;13.30;99.90;;;;;;5098029;28;20053;-83
2021/12/30 03:40:28;;;;;;;0.35;0.30;;;13.40;99.90;;;;;;5097303;28;20034;-82
2021/12/30 03:42:55;;;;;;;0.68;0.30;;;13.30;99.90;;;;;;5097773;28;20111;-82
2021/12/30 03:45:20;;;;;;;1.23;0.50;;;13.30;99.90;;;;;;5115837;28;20050;-83
2021/12/30 03:47:49;;;;;;;1.27;0.50;;;13.30;99.90;;;;;;5097415;28;20028;-83
2021/12/30 03:50:23;;;;;;;1.65;0.77;;;13.20;99.90;;;;;;5097847;28;20027;-83
2021/12/30 03:52:59;;;;;;;0.57;0.40;;;13.20;99.90;;;;;;5098073;28;20091;-82
2021/12/30 03:55:27;;;;;;;1.38;0.60;;;13.20;99.90;;;;;;5097191;28;20031;-82
2021/12/30 03:57:54;;;;;;;1.42;0.70;;;13.20;99.90;;;;;;5097627;28;20066;-82
2021/12/30 04:00:22;;;;;;;1.67;0.68;;;13.20;99.90;;;;;;5097929;28;20032;-83
2021/12/30 04:02:48;;;;;;;0.80;0.50;;;13.10;99.90;;;;;;5097016;28;20119;-83
2021/12/30 04:05:13;;;;;;;2.22;0.52;;;13.10;99.90;;;;;;5097543;28;20063;-83
2021/12/30 04:07:39;;;;;;;1.85;0.63;;;13.10;99.90;;;;;;5097120;28;20024;-82
2021/12/30 04:10:08;;;;;;;2.08;0.60;;;13.20;99.90;;;;;;5097475;28;20027;-82
2021/12/30 04:12:34;;;;;;;0.57;0.57;;;13.10;99.90;;;;;;5115254;28;20039;-82
2021/12/30 04:15:01;;;;;;;1.42;0.52;;;13.20;99.90;;;;;;5115414;28;20024;-83
2021/12/30 04:17:28;;;;;;;1.42;0.40;;;13.10;99.90;;;;;;5115100;28;20456;-82
2021/12/30 04:19:54;;;;;;;2.00;0.47;;;13.10;99.90;;;;;;5097218;28;20031;-83
2021/12/30 04:22:19;;;;;;;0.80;0.60;;;13.10;99.90;;;;;;5058309;28;1109329;-82
2021/12/30 04:24:46;;;;;;;2.17;0.70;;;13.10;99.90;;;;;;5097789;28;20119;-83
2021/12/30 04:27:12;;;;;;;1.10;0.35;;;13.10;99.90;;;;;;5097943;28;20039;-83
2021/12/30 04:29:38;;;;;;;1.38;0.45;;;13.10;99.90;;;;;;5115617;28;20024;-82
2021/12/30 04:32:04;;;;;;;0.52;0.30;;;13.10;99.90;;;;;;5115875;28;20044;-83
2021/12/30 04:34:30;;;;;;;2.15;0.30;;;13.10;99.90;;;;;;5097703;28;20035;-82
2021/12/30 04:36:58;;;;;;;2.72;0.40;;;13.20;99.90;;;;;;5098024;28;20023;-83
2021/12/30 04:39:26;;;;;;;2.05;0.20;;;13.10;99.90;;;;;;5097986;28;20028;-83
2021/12/30 04:41:52;;;;;;;1.00;0.13;;;13.20;99.90;;;;;;5098010;28;20035;-82
2021/12/30 04:44:17;;;;;;;1.05;0.30;;;13.20;99.90;;;;;;5115973;28;20522;-83
2021/12/30 04:46:43;;;;;;;0.57;0.10;;;13.20;99.90;;;;;;5115319;28;20020;-82
2021/12/30 04:49:09;;;;;;;0.30;0.10;;;13.20;99.90;;;;;;5097806;28;20028;-82
2021/12/30 04:51:34;;;;;;;0.57;0.25;;;13.30;99.90;;;;;;5114488;28;20023;-82
2021/12/30 04:54:00;;;;;;;0.90;0.20;;;13.30;99.90;;;;;;5097991;28;20028;-83
2021/12/30 04:56:26;;;;;;;2.08;0.20;;;13.30;99.90;;;;;;5097385;28;20471;-83
2021/12/30 04:58:52;;;;;;;1.50;0.20;;;13.30;99.90;;;;;;5115145;28;20027;-82
2021/12/30 05:01:17;;;;;;;0.70;0.10;;;13.30;99.90;;;;;;5097480;28;20045;-83
2021/12/30 05:03:43;;;;;;;0.93;0.20;;;13.40;99.90;;;;;;5097185;28;20036;-83
2021/12/30 05:06:09;;;;;;;0.20;0.20;;;13.40;99.90;;;;;;5097633;28;20362;-82
2021/12/30 05:08:35;;;;;;;0.43;0.10;;;13.40;99.90;;;;;;5096915;28;20468;-83
2021/12/30 05:11:00;;;;;;;0.95;0.22;;;13.50;99.90;;;;;;5097335;28;20024;-83
2021/12/30 05:13:26;;;;;;;0.10;0.00;;;13.50;99.90;;;;;;5115484;28;20420;-82
2021/12/30 05:15:52;;;;;;;0.45;0.10;;;13.50;99.90;;;;;;5097173;28;20027;-83
2021/12/30 05:18:20;;;;;;;0.25;0.20;;;13.50;99.90;;;;;;5097485;28;20027;-82
2021/12/30 05:20:46;;;;;;;0.32;0.20;;;13.50;99.90;;;;;;5114722;28;20027;-82
2021/12/30 05:23:12;;;;;;;0.57;0.15;;;13.60;99.90;;;;;;5115112;28;20074;-82
2021/12/30 05:25:37;;;;;;;1.77;0.17;;;13.60;99.90;;;;;;5096670;28;20170;-82
2021/12/30 05:28:04;;;;;;;0.50;0.10;;;13.60;99.90;;;;;;5096977;28;20024;-82
2021/12/30 05:30:32;;;;;;;0.22;0.10;;;13.60;99.90;;;;;;5096900;28;20039;-82
2021/12/30 05:32:58;;;;;;;1.17;0.20;;;13.60;99.90;;;;;;5096946;28;20532;-82
2021/12/30 05:35:24;;;;;;;0.22;0.10;;;13.60;99.90;;;;;;5097332;28;20108;-82
2021/12/30 05:37:50;;;;;;;0.28;0.08;;;13.70;99.90;;;;;;5114534;28;20216;-82
2021/12/30 05:40:19;;;;;;;0.30;0.10;;;13.70;99.90;;;;;;5115019;28;20063;-82
2021/12/30 05:42:45;;;;;;;0.30;0.10;;;13.70;99.90;;;;;;5096272;28;20069;-82
2021/12/30 05:45:14;;;;;;;0.32;0.10;;;13.70;99.90;;;;;;5096620;28;20027;-82
2021/12/30 05:47:41;;;;;;;0.15;0.10;;;13.70;99.90;;;;;;5096370;28;20460;-82
2021/12/30 05:50:08;;;;;;;0.52;0.20;;;13.80;99.90;;;;;;5114539;28;20026;-82
2021/12/30 05:52:35;;;;;;;0.30;0.10;;;13.80;99.90;;;;;;5096409;28;20031;-82
2021/12/30 05:55:01;;;;;;;1.20;0.17;;;13.80;99.90;;;;;;5096744;28;20058;-83
2021/12/30 05:57:27;;;;;;;0.10;0.10;;;13.80;99.90;;;;;;5114670;28;20058;-82
2021/12/30 05:59:52;;;;;;;0.20;0.10;;;13.80;99.90;;;;;;5096190;28;20024;-82
2021/12/30 06:02:18;;;;;;;0.32;0.20;;;13.80;99.90;;;;;;5096286;28;20019;-83
2021/12/30 06:04:44;;;;;;;0.50;0.30;;;13.90;99.90;;;;;;5096040;28;20028;-82
2021/12/30 06:07:10;;;;;;;0.20;0.20;;;13.80;99.90;;;;;;5114527;28;20089;-82
2021/12/30 06:09:36;;;;;;;1.95;0.20;;;13.90;99.90;;;;;;5096193;28;20460;-82
2021/12/30 06:12:02;;;;;;;0.57;0.10;;;13.90;99.90;;;;;;5096330;28;20149;-82
2021/12/30 06:14:28;;;;;;;0.50;0.15;;;13.90;99.90;;;;;;5096224;28;20073;-82
2021/12/30 06:16:53;;;;;;;0.10;0.10;;;13.90;99.90;;;;;;5114326;28;20031;-82
2021/12/30 06:19:19;;;;;;;0.68;0.10;;;13.90;99.90;;;;;;5096853;28;20095;-83
2021/12/30 06:21:45;;;;;;;0.88;0.10;;;13.90;99.90;;;;;;5095820;28;20053;-82
2021/12/30 06:24:10;;;;;;;0.45;0.20;;;13.90;99.90;;;;;;5096498;28;20024;-83
2021/12/30 06:26:36;;;;;;;0.47;0.10;;;13.90;99.90;;;;;;5095853;28;20475;-82
2021/12/30 06:29:02;;;;;;;0.57;0.10;;;13.90;99.90;;;;;;5096362;28;20059;-82
2021/12/30 06:31:28;;;;;;;0.40;0.20;;;14.00;99.90;;;;;;5096235;28;20040;-82
2021/12/30 06:33:53;;;;;;;0.10;0.10;;;14.00;99.90;;;;;;5095673;28;20491;-82
2021/12/30 06:36:21;;;;;;;0.20;0.10;;;14.00;99.90;;;;;;5096193;28;20027;-82
2021/12/30 06:38:50;;;;;;;0.20;0.15;;;14.00;99.90;;;;;;5095932;28;20031;-82
2021/12/30 06:41:16;;;;;;;0.10;0.10;;;14.00;99.90;;;;;;5114424;28;20028;-83
2021/12/30 06:43:42;;;;;;;0.20;0.00;;;14.00;99.90;;;;;;5095690;28;20392;-82
2021/12/30 06:46:09;;;;;;;0.43;0.15;;;14.00;99.90;;;;;;5096008;28;20156;-83
2021/12/30 06:48:35;;;;;;;0.10;0.10;;;14.00;99.90;;;;;;5095747;28;20070;-82
2021/12/30 06:51:04;;;;;;;0.90;0.05;;;14.00;99.90;;;;;;5096119;28;20035;-82
2021/12/30 06:53:30;;;;;;;0.13;0.10;;;14.00;99.90;;;;;;5096221;28;20028;-83
2021/12/30 06:55:56;;;;;;;0.88;0.20;;;14.00;99.90;;;;;;5095761;28;20051;-82
2021/12/30 06:58:22;;;;;;;0.13;0.05;;;14.00;99.90;;;;;;5096001;28;20046;-82
2021/12/30 07:00:48;;;;;;;0.22;0.03;;;14.00;99.90;;;;;;5095711;28;20464;-82
2021/12/30 07:03:14;;;;;;;0.82;0.10;;;14.00;99.90;;;;;;5114142;28;20509;-83
2021/12/30 07:05:40;;;;;;;0.85;0.10;;;14.10;99.90;;;;;;5095589;28;20023;-82
2021/12/30 07:08:05;;;;;;;0.00;0.00;;;14.10;99.90;;;;;;5114028;28;20372;-83
2021/12/30 07:10:31;;;;;;;0.65;0.10;;;14.10;99.90;;;;;;5095437;28;20031;-82
2021/12/30 07:12:57;;;;;;;0.55;0.10;;;14.10;99.90;;;;;;5095369;28;20031;-83
2021/12/30 07:15:22;;;;;;;0.63;0.20;;;14.20;99.90;;;;;;5098111;28;20039;-82
2021/12/30 07:17:48;;;;;;;0.10;0.00;;;14.20;99.90;;;;;;5099205;28;20024;-82
2021/12/30 07:20:14;;;;;;;0.85;0.10;;;14.20;99.90;;;;;;5099988;28;20076;-82
2021/12/30 07:22:41;;;;;;;0.22;0.00;;;14.20;99.90;;;;;;5098665;28;20040;-82
2021/12/30 07:25:07;;;;;;;0.10;0.10;;;14.20;99.90;;;;;;5099514;28;20042;-82
2021/12/30 07:27:33;;;;;;;1.38;0.15;;;14.20;99.90;;;;;;5117216;28;20080;-82
2021/12/30 07:29:59;;;;;;;0.20;0.20;;;14.30;99.90;;;;;;5098511;28;20024;-82
2021/12/30 07:32:28;;;;;;;0.85;0.20;;;14.20;99.90;;;;;;5099214;28;20028;-82
2021/12/30 07:34:54;;;;;;;1.42;0.20;;;14.30;99.90;;;;;;5116744;28;20035;-83
2021/12/30 07:37:20;;;;;;;0.75;0.20;;;14.20;99.90;;;;;;5116935;28;20039;-82
2021/12/30 07:39:47;;;;;;;0.10;0.05;;;14.20;99.90;;;;;;5098496;28;20118;-82
2021/12/30 07:42:13;;;;;;;0.10;0.10;;;14.30;99.90;;;;;;5099094;28;20119;-82
2021/12/30 07:44:39;;;;;;;0.20;0.10;;;14.30;99.90;;;;;;5098536;28;20043;-82
2021/12/30 07:47:06;;;;;;;0.10;0.10;;;14.30;99.90;;;;;;5099264;28;20020;-82
2021/12/30 07:49:32;;;;;;;0.85;0.03;;;14.20;99.90;;;;;;5116940;28;20032;-82
2021/12/30 07:51:59;;;;;;;1.10;0.10;;;14.30;99.90;;;;;;5116479;28;20065;-82
2021/12/30 07:54:25;;;;;;;0.30;0.30;;;14.30;99.90;;;;;;5098807;28;20168;-82
2021/12/30 07:56:50;;;;;;;0.80;0.43;;;14.30;99.90;;;;;;5098214;28;20064;-82
2021/12/30 07:59:16;;;;;;;0.35;0.00;;;14.30;99.90;;;;;;5099066;28;20032;-82
2021/12/30 08:01:42;;;;;;;0.50;0.10;;;14.20;99.90;;;;;;5116654;28;20036;-82
2021/12/30 08:04:07;;;;;;;0.35;0.10;;;14.30;99.90;;;;;;5116662;28;20032;-82
2021/12/30 08:06:33;;;;;;;0.98;0.20;;;14.20;99.90;;;;;;5098530;28;20024;-82
2021/12/30 08:08:59;;;;;;;1.80;0.15;;;14.20;99.90;;;;;;5116232;28;20055;-82
2021/12/30 08:11:25;;;;;;;0.80;0.10;;;14.10;99.90;;;;;;5098354;28;20116;-82
2021/12/30 08:13:50;;;;;;;1.55;0.20;;;14.10;99.90;;;;;;5098078;28;20028;-82
2021/12/30 08:16:16;;;;;;;0.57;0.22;;;14.10;99.90;;;;;;5098450;28;20027;-82
2021/12/30 08:18:42;;;;;;;4.47;0.20;;;14.00;99.90;;;;;;5097535;28;20055;-82
2021/12/30 08:21:09;;;;;;;0.10;0.10;;;14.00;99.90;;;;;;5098446;28;20031;-82
2021/12/30 08:23:35;;;;;;;0.85;0.20;;;14.00;99.90;;;;;;5098269;28;20052;-82
2021/12/30 08:26:05;;;;;;;0.75;0.15;;;13.90;99.90;;;;;;5096645;28;20027;-82
2021/12/30 08:28:31;;;;;;;0.50;0.10;;;13.90;99.90;;;;;;5098231;28;20024;-82
2021/12/30 08:30:57;;;;;;;0.32;0.13;;;13.90;99.90;;;;;;5096920;28;20036;-82
2021/12/30 08:33:23;;;;;;;0.30;0.10;;;13.80;99.90;;;;;;5097976;28;20027;-82
2021/12/30 08:35:49;;;;;;;0.47;0.10;;;13.80;99.90;;;;;;5097495;28;20023;-82
2021/12/30 08:38:17;;;;;;;0.10;0.10;;;13.80;99.90;;;;;;5097679;28;20023;-82
2021/12/30 08:40:45;;;;;;;0.82;0.20;;;13.90;99.90;;;;;;5097610;28;20046;-82
2021/12/30 08:43:13;;;;;;;0.70;0.10;;;13.90;99.90;;;;;;5098314;28;20029;-82
2021/12/30 08:45:39;;;;;;;0.82;0.20;;;13.90;99.90;;;;;;5097685;28;20027;-82
2021/12/30 08:48:05;;;;;;;1.00;0.20;;;13.90;99.90;;;;;;5097409;28;20027;-83
2021/12/30 08:50:31;;;;;;;1.55;0.20;;;13.90;99.90;;;;;;5097688;28;20533;-83
2021/12/30 08:52:56;;;;;;;1.27;0.20;;;14.00;99.90;;;;;;5097154;28;20031;-83
2021/12/30 08:55:22;;;;;;;1.05;0.20;;;14.00;99.90;;;;;;5115774;28;20024;-84
2021/12/30 08:57:49;;;;;;;0.30;0.10;;;14.00;99.90;;;;;;5097126;28;20110;-84
2021/12/30 09:00:23;;;;;;;0.40;0.10;;;14.00;99.90;;;;;;5097599;28;20038;-84
2021/12/30 09:02:49;;;;;;;1.05;0.10;;;14.10;99.90;;;;;;5096971;28;20027;-84
2021/12/30 09:05:15;;;;;;;0.30;0.10;;;14.10;99.90;;;;;;5097682;28;20028;-84
2021/12/30 09:07:41;;;;;;;2.03;0.10;;;14.20;99.90;;;;;;5097383;28;20511;-84
2021/12/30 09:10:09;;;;;;;0.25;0.10;;;14.20;99.90;;;;;;5097118;28;20024;-84
2021/12/30 09:12:35;;;;;;;0.52;0.10;;;14.20;99.90;;;;;;5115396;28;20036;-83
2021/12/30 09:15:02;;;;;;;0.57;0.10;;;14.20;99.90;;;;;;5096817;28;20024;-83
2021/12/30 09:17:27;;;;;;;0.25;0.20;;;14.30;99.90;;;;;;5097215;28;20023;-83
2021/12/30 09:19:53;;;;;;;0.25;0.10;;;14.30;99.90;;;;;;5096785;28;20464;-82
2021/12/30 09:22:19;;;;;;;0.30;0.03;;;14.40;99.90;;;;;;5097010;28;20043;-82
2021/12/30 09:24:44;;;;;;;0.10;0.10;;;14.40;99.90;;;;;;5096838;28;20073;-82
2021/12/30 09:27:10;;;;;;;0.13;0.03;;;14.50;99.90;;;;;;5097218;28;20060;-83
2021/12/30 09:29:36;;;;;;;0.25;0.10;;;14.50;99.90;;;;;;5097105;28;20051;-83
2021/12/30 09:32:02;;;;;;;0.05;0.03;;;14.60;99.90;;;;;;5114622;28;20097;-83
2021/12/30 09:34:27;;;;;;;1.00;0.15;;;14.60;99.90;;;;;;5096961;28;20122;-84
2021/12/30 09:36:53;;;;;;;1.20;0.20;;;14.70;99.90;;;;;;5114338;28;20475;-83
2021/12/30 09:39:19;;;;;;;0.30;0.10;;;14.70;99.90;;;;;;5097049;28;20024;-83
2021/12/30 09:41:45;;;;;;;0.08;0.00;;;14.70;99.90;;;;;;5096448;28;20028;-81
2021/12/30 09:44:15;;;;;;;1.27;0.10;;;14.70;99.90;;;;;;5097080;28;20031;-84
2021/12/30 09:46:41;;;;;;;0.30;0.10;;;14.70;99.90;;;;;;5114885;28;20038;-83
2021/12/30 09:49:09;;;;;;;0.47;0.10;;;14.80;99.90;;;;;;5096184;28;20026;-83
2021/12/30 09:51:35;;;;;;;0.52;0.10;;;14.80;99.90;;;;;;5096662;28;20388;-83
2021/12/30 09:54:02;;;;;;;0.15;0.00;;;14.80;99.90;;;;;;5096155;28;20031;-83
2021/12/30 09:56:29;;;;;;;1.00;0.10;;;14.90;99.90;;;;;;5096886;28;20028;-83
2021/12/30 09:58:56;;;;;;;0.20;0.17;;;14.90;99.90;;;;;;5115424;28;20492;-83
2021/12/30 10:01:22;;;;;;;0.10;0.00;;;14.90;99.90;;;;;;5114473;28;20055;-83
2021/12/30 10:03:47;;;;;;;0.85;0.10;;;14.90;99.90;;;;;;5096111;28;20034;-82
2021/12/30 10:06:15;;;;;;;0.30;0.20;;;14.90;99.90;;;;;;5096774;28;20019;-83
2021/12/30 10:09:09;;;;;;;0.35;0.20;;;14.90;99.90;;;;;;5096628;28;20024;-83
2021/12/30 10:12:00;;;;;;;0.22;0.20;;;14.80;99.90;;;;;;5114455;28;20024;-83
2021/12/30 10:14:34;;;;;;;0.50;0.20;;;14.80;99.90;;;;;;5114536;28;20110;-83
2021/12/30 10:17:33;;;;;;;0.38;0.10;;;14.80;99.90;;;;;;5114210;28;20526;-83
2021/12/30 10:20:18;;;;;;;0.25;0.10;;;14.80;99.90;;;;;;5041457;28;20123;-82
2021/12/30 10:22:46;;;;;;;0.50;0.10;;;14.80;99.90;;;;;;5096026;28;20048;-82
2021/12/30 10:25:49;;;;;;;0.47;0.20;;;14.80;99.90;;;;;;5096475;28;20034;-82
2021/12/30 10:28:34;;;;;;;0.90;0.20;;;14.90;99.90;;;;;;4995743;28;20030;-82
2021/12/30 10:31:10;;;;;;;1.20;0.10;;;14.80;99.90;;;;;;5105867;28;20031;-83
2021/12/30 10:33:37;;;;;;;0.15;0.15;;;14.90;99.90;;;;;;5114285;28;20108;-82
2021/12/30 10:36:24;;;;;;;2.60;0.20;;;14.90;99.90;;;;;;5095612;28;20120;-83
2021/12/30 10:38:51;;;;;;;0.32;0.10;;;15.00;99.90;;;;;;5095648;28;20034;-81
2021/12/30 10:41:16;;;;;;;0.43;0.10;;;15.00;99.90;;;;;;5096083;28;20472;-82
2021/12/30 10:46:09;;;;;;;0.22;0.10;;;15.10;99.90;;;;;;5113823;28;20036;-82
2021/12/30 10:48:55;;;;;;;1.15;0.20;;;15.00;99.90;;;;;;5096352;28;20468;-83
2021/12/30 10:51:28;;;;;;;2.50;0.10;;;15.10;99.90;;;;;;5100149;28;20035;-82
2021/12/30 10:53:56;;;;;;;1.38;0.30;;;15.10;99.90;;;;;;5117623;28;20024;-82
2021/12/30 10:56:32;;;;;;;1.10;0.10;;;15.10;99.90;;;;;;5099519;28;20032;-83
2021/12/30 10:59:08;;;;;;;0.47;0.10;;;15.10;99.90;;;;;;5099615;28;20024;-82
2021/12/30 11:01:46;;;;;;;0.65;0.20;;;15.10;99.90;;;;;;5099952;28;20097;-83
2021/12/30 11:04:12;;;;;;;0.15;0.10;;;15.10;99.90;;;;;;5099410;28;20032;-82
2021/12/30 11:06:39;;;;;;;0.20;0.10;;;15.10;99.90;;;;;;5099897;28;20028;-82
2021/12/30 11:09:17;;;;;;;0.10;0.10;;;15.00;99.90;;;;;;5099516;28;20428;-82
2021/12/30 11:11:53;;;;;;;1.38;0.20;;;15.10;99.90;;;;;;5099889;28;20027;-82
2021/12/30 11:14:22;;;;;;;0.70;0.30;;;15.00;99.90;;;;;;5099458;28;20059;-82
2021/12/30 11:16:57;;;;;;;0.17;0.10;;;15.10;99.90;;;;;;5099765;28;20064;-82
2021/12/30 11:19:23;;;;;;;0.40;0.15;;;15.10;99.90;;;;;;5099618;28;20476;-83
2021/12/30 11:21:51;;;;;;;0.60;0.20;;;15.10;99.90;;;;;;5099484;28;20494;-83
2021/12/30 11:24:18;;;;;;;0.10;0.10;;;15.10;99.90;;;;;;5099612;28;20049;-83
2021/12/30 11:26:44;;;;;;;1.70;0.50;;;15.00;99.90;;;;;;5099481;28;20024;-83
2021/12/30 11:29:10;;;;;;;2.25;0.68;;;15.10;99.90;;;;;;5099131;28;20325;-84
2021/12/30 11:31:36;;;;;;;2.42;0.50;;;15.00;99.90;;;;;;5099244;28;20078;-83
2021/12/30 11:34:04;;;;;;;1.98;1.00;;;15.00;99.90;;;;;;5098900;28;20028;-84
2021/12/30 11:36:33;;;;;;;1.25;0.90;;;15.00;99.90;;;;;;5099258;28;20073;-83
2021/12/30 11:39:03;;;;;;;0.50;0.40;;;15.00;99.90;;;;;;5098374;28;20077;-83
2021/12/30 11:41:32;;;;;;;3.08;1.05;;;15.00;99.90;;;;;;5099303;28;20038;-83
2021/12/30 11:43:58;;;;;;;1.25;0.95;;;15.00;99.90;;;;;;5099244;28;20039;-83
2021/12/30 11:46:37;;;;;;;2.63;1.20;;;15.00;99.90;;;;;;5099109;28;20110;-84
2021/12/30 11:49:05;;;;;;;2.95;1.20;;;15.00;99.90;;;;;;5117841;28;20099;-83
2021/12/30 11:51:49;;;;;;;1.27;0.50;;;15.00;99.90;;;;;;5099054;28;20028;-83
2021/12/30 11:54:34;;;;;;;0.43;0.20;;;14.90;99.90;;;;;;5098416;28;20028;-84
2021/12/30 11:57:22;;;;;;;0.38;0.20;;;14.90;99.90;;;;;;5098303;28;20026;-83
2021/12/30 11:59:47;;;;;;;1.27;0.20;;;14.90;99.90;;;;;;5098664;28;20354;-83
2021/12/30 12:02:39;;;;;;;0.30;0.20;;;14.80;99.90;;;;;;5097987;28;20089;-84
2021/12/30 12:05:43;;;;;;;1.65;0.20;;;14.80;99.90;;;;;;5093926;28;20039;-84
2021/12/30 12:08:11;;;;;;;0.32;0.10;;;14.80;99.90;;;;;;5098153;28;20032;-84
2021/12/30 12:10:40;;;;;;;0.45;0.30;;;14.70;99.90;;;;;;5098497;28;20032;-84
2021/12/30 12:13:30;;;;;;;0.47;0.20;;;14.70;99.90;;;;;;5098110;28;20039;-84
2021/12/30 12:15:56;;;;;;;0.40;0.20;;;14.70;99.90;;;;;;5097831;28;20024;-84
2021/12/30 12:18:23;;;;;;;0.45;0.20;;;14.70;99.90;;;;;;5116710;28;20030;-84
2021/12/30 12:20:54;;;;;;;0.65;0.20;;;14.70;99.90;;;;;;5098607;28;20460;-84
2021/12/30 12:23:38;;;;;;;0.83;0.23;;;14.70;99.90;;;;;;5098522;28;20069;-83
2021/12/30 12:26:14;;;;;;;1.33;0.20;;;14.70;99.90;;;;;;5099293;28;20045;-83
2021/12/30 12:28:40;;;;;;;0.30;0.20;;;14.80;99.90;;;;;;5100386;28;20024;-83
2021/12/30 12:31:08;;;;;;;0.65;0.28;;;14.80;99.90;;;;;;5115260;28;20031;-83
2021/12/30 12:33:36;;;;;;;0.60;0.25;;;14.80;99.90;;;;;;5116185;28;20118;-84
2021/12/30 12:36:16;;;;;;;0.60;0.20;;;14.80;99.90;;;;;;5097539;28;20028;-83
2021/12/30 12:38:49;;;;;;;0.50;0.30;;;14.80;99.90;;;;;;5098058;28;20104;-83
2021/12/30 12:41:25;;;;;;;0.20;0.10;;;14.80;99.90;;;;;;5097551;28;20285;-83
2021/12/30 12:44:19;;;;;;;0.63;0.20;;;14.90;99.90;;;;;;5116045;28;20028;-83
2021/12/30 12:46:47;;;;;;;0.45;0.35;;;14.80;99.90;;;;;;5104140;28;20046;-83
2021/12/30 12:49:15;;;;;;;0.20;0.20;;;14.80;99.90;;;;;;5097375;28;20130;-84
2021/12/30 12:51:55;;;;;;;0.47;0.25;;;14.80;99.90;;;;;;5097696;28;20074;-84
2021/12/30 12:54:37;;;;;;;1.95;0.30;;;14.80;99.90;;;;;;5097398;28;20028;-83
2021/12/30 12:57:10;;;;;;;1.52;0.25;;;14.70;99.90;;;;;;5097293;28;20020;-83